Time,TemperatureF,DewpointF,PressureIn,WindDirection,WindDirectionDegrees,WindSpeedMPH,WindSpeedGustMPH,Humidity,HourlyPrecipIn,Conditions,Clouds,dailyrainin,SoftwareType,DateUTC
2013-01-22 00:00:00,30.1,29.6,30.23,NE,54,1.0,1.0,98,0.00,,,0.00,Wunderground v.1.15,2013-01-22 08:00:00,
2013-01-22 00:11:00,29.8,29.1,30.22,NE,54,0.0,0.0,97,0.00,,,0.00,Wunderground v.1.15,2013-01-22 08:11:00,
2013-01-22 00:20:00,29.8,29.1,30.21,NE,54,0.0,0.0,97,0.00,,,0.00,Wunderground v.1.15,2013-01-22 08:20:00,
2013-01-22 00:30:00,29.7,29.0,30.21,NE,54,0.0,0.0,97,0.00,,,0.00,Wunderground v.1.15,2013-01-22 08:30:00,
2013-01-22 00:35:00,29.7,29.0,30.21,NE,54,0.0,0.0,97,0.00,,,0.00,Wunderground v.1.15,2013-01-22 08:35:00,
2013-01-22 00:46:00,29.8,29.1,30.21,NE,45,0.0,0.0,97,0.00,,,0.00,Wunderground v.1.15,2013-01-22 08:46:00,
2013-01-22 00:51:00,29.7,29.0,30.21,NE,34,0.0,2.0,97,0.00,,,0.00,Wunderground v.1.15,2013-01-22 08:51:00,
2013-01-22 01:00:00,29.3,28.6,30.21,SW,224,0.0,0.0,97,0.00,,,0.00,Wunderground v.1.15,2013-01-22 09:00:00,
2013-01-22 01:10:00,29.3,28.6,30.22,SW,226,0.0,1.0,97,0.00,,,0.00,Wunderground v.1.15,2013-01-22 09:10:00,
2013-01-22 01:20:00,29.1,28.4,30.21,SW,226,0.0,0.0,97,0.00,,,0.00,Wunderground v.1.15,2013-01-22 09:20:00,
2013-01-22 01:26:00,28.7,28.0,30.21,SW,226,1.0,1.0,97,0.00,,,0.00,Wunderground v.1.15,2013-01-22 09:26:00,
2013-01-22 01:31:00,28.4,27.7,30.21,SW,226,1.0,1.0,97,0.00,,,0.00,Wunderground v.1.15,2013-01-22 09:31:00,
2013-01-22 01:36:00,28.4,27.7,30.21,SW,226,0.0,1.0,97,0.00,,,0.00,Wunderground v.1.15,2013-01-22 09:36:00,
2013-01-22 01:45:00,28.5,27.8,30.21,SW,226,0.0,0.0,97,0.00,,,0.00,Wunderground v.1.15,2013-01-22 09:45:00,
2013-01-22 01:55:00,28.7,28.0,30.20,SW,226,0.0,0.0,97,0.00,,,0.00,Wunderground v.1.15,2013-01-22 09:55:00,
2013-01-22 02:01:00,28.7,28.0,30.20,SW,226,0.0,0.0,97,0.00,,,0.00,Wunderground v.1.15,2013-01-22 10:01:00,
2013-01-22 02:10:00,28.4,27.7,30.21,SW,226,0.0,0.0,97,0.00,,,0.00,Wunderground v.1.15,2013-01-22 10:10:00,
2013-01-22 02:21:00,28.4,27.7,30.21,SW,226,0.0,0.0,97,0.00,,,0.00,Wunderground v.1.15,2013-01-22 10:21:00,
2013-01-22 02:30:00,28.2,27.5,30.21,SW,226,0.0,0.0,97,0.00,,,0.00,Wunderground v.1.15,2013-01-22 10:30:00,
2013-01-22 02:40:00,27.9,27.2,30.21,SW,226,0.0,0.0,97,0.00,,,0.00,Wunderground v.1.15,2013-01-22 10:40:00,
2013-01-22 02:45:00,27.9,27.2,30.21,SW,226,0.0,0.0,97,0.00,,,0.00,Wunderground v.1.15,2013-01-22 10:45:00,
2013-01-22 02:55:00,27.8,27.1,30.20,SW,226,0.0,0.0,97,0.00,,,0.00,Wunderground v.1.15,2013-01-22 10:55:00,
2013-01-22 03:01:00,27.8,27.1,30.20,SW,226,0.0,0.0,97,0.00,,,0.00,Wunderground v.1.15,2013-01-22 11:01:00,
2013-01-22 03:11:00,27.8,27.1,30.20,SW,226,0.0,0.0,97,0.00,,,0.00,Wunderground v.1.15,2013-01-22 11:11:00,
2013-01-22 03:20:00,27.6,26.9,30.21,SW,226,0.0,0.0,97,0.00,,,0.00,Wunderground v.1.15,2013-01-22 11:20:00,
2013-01-22 03:25:00,27.6,26.9,30.21,SW,226,0.0,0.0,97,0.00,,,0.00,Wunderground v.1.15,2013-01-22 11:25:00,
2013-01-22 03:35:00,27.8,27.1,30.21,SW,226,0.0,0.0,97,0.00,,,0.00,Wunderground v.1.15,2013-01-22 11:35:00,
2013-01-22 03:46:00,27.8,27.1,30.21,SW,226,0.0,0.0,97,0.00,,,0.00,Wunderground v.1.15,2013-01-22 11:46:00,
2013-01-22 03:55:00,27.8,27.1,30.20,SW,224,0.0,0.0,97,0.00,,,0.00,Wunderground v.1.15,2013-01-22 11:55:00,
2013-01-22 04:11:00,27.6,26.9,30.21,SW,224,0.0,0.0,97,0.00,,,0.00,Wunderground v.1.15,2013-01-22 12:11:00,
2013-01-22 04:20:00,27.6,26.9,30.21,SW,224,0.0,0.0,97,0.00,,,0.00,Wunderground v.1.15,2013-01-22 12:20:00,
2013-01-22 04:30:00,27.5,26.8,30.21,SW,224,0.0,0.0,97,0.00,,,0.00,Wunderground v.1.15,2013-01-22 12:30:00,
2013-01-22 04:40:00,27.5,26.8,30.20,SW,224,0.0,0.0,97,0.00,,,0.00,Wunderground v.1.15,2013-01-22 12:40:00,
2013-01-22 04:51:00,27.5,26.8,30.19,SW,224,0.0,0.0,97,0.00,,,0.00,Wunderground v.1.15,2013-01-22 12:51:00,
2013-01-22 05:00:00,27.5,26.8,30.19,SW,224,0.0,0.0,97,0.00,,,0.00,Wunderground v.1.15,2013-01-22 13:00:00,
2013-01-22 05:06:00,27.3,26.6,30.18,SW,224,0.0,0.0,97,0.00,,,0.00,Wunderground v.1.15,2013-01-22 13:06:00,
2013-01-22 05:15:00,27.0,26.3,30.18,SW,224,0.0,0.0,97,0.00,,,0.00,Wunderground v.1.15,2013-01-22 13:15:00,
2013-01-22 05:25:00,26.7,26.0,30.18,SW,224,0.0,0.0,97,0.00,,,0.00,Wunderground v.1.15,2013-01-22 13:25:00,
2013-01-22 05:35:00,26.6,25.9,30.18,SW,224,0.0,0.0,97,0.00,,,0.00,Wunderground v.1.15,2013-01-22 13:35:00,
2013-01-22 05:45:00,26.4,25.4,30.18,SW,224,0.0,0.0,96,0.00,,,0.00,Wunderground v.1.15,2013-01-22 13:45:00,
2013-01-22 05:55:00,26.3,25.3,30.17,SW,224,0.0,0.0,96,0.00,,,0.00,Wunderground v.1.15,2013-01-22 13:55:00,
2013-01-22 06:01:00,26.1,25.1,30.17,SW,224,0.0,0.0,96,0.00,,,0.00,Wunderground v.1.15,2013-01-22 14:01:00,
2013-01-22 06:10:00,26.1,25.1,30.17,SW,224,0.0,0.0,96,0.00,,,0.00,Wunderground v.1.15,2013-01-22 14:10:00,
2013-01-22 06:16:00,26.1,25.1,30.17,SW,224,0.0,0.0,96,0.00,,,0.00,Wunderground v.1.15,2013-01-22 14:16:00,
2013-01-22 06:25:00,26.3,25.3,30.17,SW,224,0.0,0.0,96,0.00,,,0.00,Wunderground v.1.15,2013-01-22 14:25:00,
2013-01-22 06:35:00,26.1,25.1,30.17,SW,224,0.0,0.0,96,0.00,,,0.00,Wunderground v.1.15,2013-01-22 14:35:00,
2013-01-22 06:40:00,26.1,25.1,30.17,SW,224,0.0,0.0,96,0.00,,,0.00,Wunderground v.1.15,2013-01-22 14:40:00,
2013-01-22 06:50:00,26.3,25.3,30.17,SW,224,0.0,0.0,96,0.00,,,0.00,Wunderground v.1.15,2013-01-22 14:50:00,
2013-01-22 07:01:00,26.3,25.3,30.17,SW,224,0.0,0.0,96,0.00,,,0.00,Wunderground v.1.15,2013-01-22 15:01:00,
2013-01-22 07:10:00,26.0,25.0,30.17,SW,224,0.0,0.0,96,0.00,,,0.00,Wunderground v.1.15,2013-01-22 15:10:00,
2013-01-22 07:16:00,26.1,25.1,30.17,SW,224,0.0,0.0,96,0.00,,,0.00,Wunderground v.1.15,2013-01-22 15:16:00,
2013-01-22 07:21:00,26.1,25.1,30.16,SW,224,0.0,0.0,96,0.00,,,0.00,Wunderground v.1.15,2013-01-22 15:21:00,
2013-01-22 07:26:00,26.1,25.1,30.16,SW,224,0.0,0.0,96,0.00,,,0.00,Wunderground v.1.15,2013-01-22 15:26:00,
2013-01-22 07:31:00,26.1,25.1,30.16,SW,224,0.0,0.0,96,0.00,,,0.00,Wunderground v.1.15,2013-01-22 15:31:00,
2013-01-22 07:40:00,26.3,25.3,30.16,SW,224,0.0,0.0,96,0.00,,,0.00,Wunderground v.1.15,2013-01-22 15:40:00,
2013-01-22 07:45:00,26.3,25.3,30.16,SW,224,0.0,0.0,96,0.00,,,0.00,Wunderground v.1.15,2013-01-22 15:45:00,
2013-01-22 07:55:00,26.3,25.3,30.16,SW,224,0.0,0.0,96,0.00,,,0.00,Wunderground v.1.15,2013-01-22 15:55:00,
2013-01-22 08:01:00,26.3,25.3,30.16,SW,224,0.0,0.0,96,0.00,,,0.00,Wunderground v.1.15,2013-01-22 16:01:00,
2013-01-22 08:11:00,26.3,25.3,30.16,SW,224,0.0,0.0,96,0.00,,,0.00,Wunderground v.1.15,2013-01-22 16:11:00,
2013-01-22 08:20:00,26.4,25.4,30.16,SW,224,0.0,0.0,96,0.00,,,0.00,Wunderground v.1.15,2013-01-22 16:20:00,
2013-01-22 08:31:00,26.4,25.4,30.16,SW,224,0.0,0.0,96,0.00,,,0.00,Wunderground v.1.15,2013-01-22 16:31:00,
2013-01-22 08:41:00,26.4,25.4,30.15,SW,224,0.0,0.0,96,0.00,,,0.00,Wunderground v.1.15,2013-01-22 16:41:00,
2013-01-22 08:50:00,26.4,25.4,30.15,SW,226,0.0,2.0,96,0.00,,,0.00,Wunderground v.1.15,2013-01-22 16:50:00,
2013-01-22 09:01:00,26.4,25.4,30.15,SW,226,0.0,0.0,96,0.00,,,0.00,Wunderground v.1.15,2013-01-22 17:01:00,
2013-01-22 09:11:00,26.4,25.4,30.15,SW,226,0.0,0.0,96,0.00,,,0.00,Wunderground v.1.15,2013-01-22 17:11:00,
2013-01-22 09:20:00,26.6,25.6,30.15,SW,224,0.0,0.0,96,0.00,,,0.00,Wunderground v.1.15,2013-01-22 17:20:00,
2013-01-22 09:30:00,26.7,25.7,30.15,SW,224,0.0,0.0,96,0.00,,,0.00,Wunderground v.1.15,2013-01-22 17:30:00,
2013-01-22 09:36:00,26.7,25.7,30.15,SW,224,1.0,1.0,96,0.00,,,0.00,Wunderground v.1.15,2013-01-22 17:36:00,
2013-01-22 09:45:00,26.9,25.9,30.15,SW,223,0.0,0.0,96,0.00,,,0.00,Wunderground v.1.15,2013-01-22 17:45:00,
2013-01-22 09:55:00,27.3,26.6,30.15,SW,223,0.0,0.0,97,0.00,,,0.00,Wunderground v.1.15,2013-01-22 17:55:00,
2013-01-22 10:10:00,27.8,27.1,30.15,SW,223,0.0,0.0,97,0.00,,,0.00,Wunderground v.1.15,2013-01-22 18:10:00,
2013-01-22 10:21:00,28.2,27.5,30.15,SW,223,0.0,0.0,97,0.00,,,0.00,Wunderground v.1.15,2013-01-22 18:21:00,
2013-01-22 10:30:00,28.5,27.8,30.15,SW,223,0.0,0.0,97,0.00,,,0.00,Wunderground v.1.15,2013-01-22 18:30:00,
2013-01-22 10:41:00,29.0,28.3,30.15,SW,223,0.0,0.0,97,0.00,,,0.00,Wunderground v.1.15,2013-01-22 18:41:00,
2013-01-22 10:50:00,29.3,28.6,30.14,SW,223,0.0,0.0,97,0.00,,,0.00,Wunderground v.1.15,2013-01-22 18:50:00,
2013-01-22 11:01:00,29.8,29.1,30.14,SW,223,0.0,0.0,97,0.00,,,0.00,Wunderground v.1.15,2013-01-22 19:01:00,
2013-01-22 11:10:00,30.3,29.6,30.14,SW,223,0.0,0.0,97,0.00,,,0.00,Wunderground v.1.15,2013-01-22 19:10:00,
2013-01-22 11:20:00,30.4,29.7,30.14,SW,223,0.0,1.0,97,0.00,,,0.00,Wunderground v.1.15,2013-01-22 19:20:00,
2013-01-22 11:26:00,30.3,29.6,30.14,SW,223,1.0,1.0,97,0.00,,,0.00,Wunderground v.1.15,2013-01-22 19:26:00,
2013-01-22 11:35:00,30.6,29.9,30.14,SW,222,0.0,0.0,97,0.00,,,0.00,Wunderground v.1.15,2013-01-22 19:35:00,
2013-01-22 11:46:00,31.2,30.4,30.14,SW,222,0.0,0.0,97,0.00,,,0.00,Wunderground v.1.15,2013-01-22 19:46:00,
2013-01-22 11:55:00,31.6,31.1,30.13,SW,222,0.0,0.0,98,0.00,,,0.00,Wunderground v.1.15,2013-01-22 19:55:00,
2013-01-22 12:01:00,31.8,31.3,30.13,SW,222,0.0,0.0,98,0.00,,,0.00,Wunderground v.1.15,2013-01-22 20:01:00,
2013-01-22 12:10:00,32.2,31.7,30.12,SW,222,0.0,0.0,98,0.00,,,0.00,Wunderground v.1.15,2013-01-22 20:10:00,
2013-01-22 12:20:00,32.7,32.2,30.12,SW,222,0.0,0.0,98,0.00,,,0.00,Wunderground v.1.15,2013-01-22 20:20:00,
2013-01-22 12:26:00,32.8,32.3,30.12,SW,222,0.0,0.0,98,0.00,,,0.00,Wunderground v.1.15,2013-01-22 20:26:00,
2013-01-22 12:35:00,33.1,32.6,30.12,SW,222,0.0,0.0,98,0.00,,,0.00,Wunderground v.1.15,2013-01-22 20:35:00,
2013-01-22 12:46:00,33.4,32.9,30.12,SW,222,0.0,0.0,98,0.00,,,0.00,Wunderground v.1.15,2013-01-22 20:46:00,
2013-01-22 12:55:00,33.7,33.2,30.11,SW,222,0.0,1.0,98,0.00,,,0.00,Wunderground v.1.15,2013-01-22 20:55:00,
2013-01-22 13:11:00,34.0,33.5,30.10,SW,222,0.0,0.0,98,0.00,,,0.00,Wunderground v.1.15,2013-01-22 21:11:00,
2013-01-22 13:20:00,34.1,33.6,30.10,SW,222,0.0,0.0,98,0.00,,,0.00,Wunderground v.1.15,2013-01-22 21:20:00,
2013-01-22 13:31:00,34.3,33.8,30.10,SW,222,0.0,0.0,98,0.00,,,0.00,Wunderground v.1.15,2013-01-22 21:31:00,
2013-01-22 13:36:00,34.4,33.9,30.09,SW,222,0.0,0.0,98,0.00,,,0.00,Wunderground v.1.15,2013-01-22 21:36:00,
2013-01-22 13:45:00,34.6,34.1,30.09,SSW,206,0.0,0.0,98,0.00,,,0.00,Wunderground v.1.15,2013-01-22 21:45:00,
2013-01-22 13:56:00,34.4,33.9,30.08,SSW,208,0.0,1.0,98,0.00,,,0.00,Wunderground v.1.15,2013-01-22 21:56:00,
2013-01-22 14:10:00,34.4,33.6,30.07,SSW,206,0.0,0.0,97,0.00,,,0.00,Wunderground v.1.15,2013-01-22 22:10:00,
2013-01-22 14:21:00,34.7,33.9,30.09,SSW,206,0.0,0.0,97,0.00,,,0.00,Wunderground v.1.15,2013-01-22 22:21:00,
2013-01-22 14:30:00,35.0,34.2,30.09,SSW,206,0.0,0.0,97,0.00,,,0.00,Wunderground v.1.15,2013-01-22 22:30:00,
2013-01-22 14:41:00,35.2,34.4,30.07,SSW,206,0.0,0.0,97,0.00,,,0.00,Wunderground v.1.15,2013-01-22 22:41:00,
2013-01-22 14:50:00,35.3,34.5,30.06,SSW,208,0.0,0.0,97,0.00,,,0.00,Wunderground v.1.15,2013-01-22 22:50:00,
2013-01-22 15:00:00,35.6,34.8,30.06,SSW,208,0.0,0.0,97,0.00,,,0.00,Wunderground v.1.15,2013-01-22 23:00:00,
2013-01-22 15:10:00,35.8,35.0,30.06,SSW,208,0.0,0.0,97,0.00,,,0.00,Wunderground v.1.15,2013-01-22 23:10:00,
2013-01-22 15:20:00,35.8,35.3,30.05,SSW,208,0.0,0.0,98,0.00,,,0.00,Wunderground v.1.15,2013-01-22 23:20:00,
2013-01-22 15:25:00,35.9,35.4,30.05,SSW,208,0.0,0.0,98,0.00,,,0.00,Wunderground v.1.15,2013-01-22 23:25:00,
2013-01-22 15:35:00,35.9,35.1,30.05,SSW,208,0.0,0.0,97,0.00,,,0.00,Wunderground v.1.15,2013-01-22 23:35:00,
2013-01-22 15:46:00,35.9,35.1,30.05,SSW,208,0.0,0.0,97,0.00,,,0.00,Wunderground v.1.15,2013-01-22 23:46:00,
2013-01-22 15:55:00,35.6,34.8,30.04,SSW,208,0.0,0.0,97,0.00,,,0.00,Wunderground v.1.15,2013-01-22 23:55:00,
2013-01-22 16:01:00,35.5,34.7,30.04,SSW,208,0.0,0.0,97,0.00,,,0.00,Wunderground v.1.15,2013-01-23 00:01:00,
2013-01-22 16:11:00,35.3,34.5,30.04,SSW,208,0.0,0.0,97,0.00,,,0.00,Wunderground v.1.15,2013-01-23 00:11:00,
2013-01-22 16:20:00,35.0,34.2,30.04,SSW,208,0.0,0.0,97,0.00,,,0.00,Wunderground v.1.15,2013-01-23 00:20:00,
2013-01-22 16:26:00,35.0,34.2,30.04,SSW,208,0.0,0.0,97,0.00,,,0.00,Wunderground v.1.15,2013-01-23 00:26:00,
2013-01-22 16:35:00,34.9,34.1,30.04,SSW,208,0.0,0.0,97,0.00,,,0.00,Wunderground v.1.15,2013-01-23 00:35:00,
2013-01-22 16:46:00,34.6,33.8,30.04,SSW,208,0.0,0.0,97,0.00,,,0.00,Wunderground v.1.15,2013-01-23 00:46:00,
2013-01-22 16:55:00,34.3,33.5,30.04,SSW,208,0.0,0.0,97,0.00,,,0.00,Wunderground v.1.15,2013-01-23 00:55:00,
2013-01-22 17:06:00,34.0,33.2,30.03,SSW,208,0.0,2.0,97,0.00,,,0.00,Wunderground v.1.15,2013-01-23 01:06:00,
2013-01-22 17:15:00,33.8,33.0,30.03,SSW,208,0.0,0.0,97,0.00,,,0.00,Wunderground v.1.15,2013-01-23 01:15:00,
2013-01-22 17:21:00,33.8,33.0,30.03,SSW,209,0.0,1.0,97,0.00,,,0.00,Wunderground v.1.15,2013-01-23 01:21:00,
2013-01-22 17:30:00,33.5,32.7,30.03,SSW,210,0.0,0.0,97,0.00,,,0.00,Wunderground v.1.15,2013-01-23 01:30:00,
2013-01-22 17:40:00,33.4,32.6,30.02,SSW,210,0.0,0.0,97,0.00,,,0.00,Wunderground v.1.15,2013-01-23 01:40:00,
2013-01-22 17:45:00,33.4,32.6,30.02,SSW,210,0.0,0.0,97,0.00,,,0.00,Wunderground v.1.15,2013-01-23 01:45:00,
2013-01-22 17:55:00,33.4,32.6,30.03,SSW,210,0.0,0.0,97,0.00,,,0.00,Wunderground v.1.15,2013-01-23 01:55:00,
2013-01-22 18:01:00,33.4,32.6,30.03,SSW,210,0.0,0.0,97,0.00,,,0.00,Wunderground v.1.15,2013-01-23 02:01:00,
2013-01-22 18:10:00,33.4,32.6,30.03,SSW,210,0.0,1.0,97,0.00,,,0.00,Wunderground v.1.15,2013-01-23 02:10:00,
2013-01-22 18:20:00,33.4,32.6,30.02,SSW,210,0.0,0.0,97,0.00,,,0.00,Wunderground v.1.15,2013-01-23 02:20:00,
2013-01-22 18:26:00,33.2,32.4,30.02,SSW,210,0.0,0.0,97,0.00,,,0.00,Wunderground v.1.15,2013-01-23 02:26:00,
2013-01-22 18:35:00,33.2,32.4,30.03,SSW,210,0.0,0.0,97,0.00,,,0.00,Wunderground v.1.15,2013-01-23 02:35:00,
2013-01-22 18:41:00,33.2,32.4,30.03,SSW,210,0.0,0.0,97,0.00,,,0.00,Wunderground v.1.15,2013-01-23 02:41:00,
2013-01-22 18:50:00,33.1,32.3,30.03,SSW,210,0.0,0.0,97,0.00,,,0.00,Wunderground v.1.15,2013-01-23 02:50:00,
2013-01-22 19:00:00,32.9,32.1,30.03,SSW,210,0.0,1.0,97,0.00,,,0.00,Wunderground v.1.15,2013-01-23 03:00:00,
2013-01-22 19:10:00,32.8,32.0,30.01,SSW,210,1.0,1.0,97,0.00,,,0.00,Wunderground v.1.15,2013-01-23 03:10:00,
2013-01-22 19:20:00,32.8,32.0,30.01,SSW,213,0.0,1.0,97,0.00,,,0.00,Wunderground v.1.15,2013-01-23 03:20:00,
2013-01-22 19:26:00,32.9,32.1,30.01,SSW,213,1.0,1.0,97,0.00,,,0.00,Wunderground v.1.15,2013-01-23 03:26:00,
2013-01-22 19:35:00,32.9,32.1,30.01,SSW,213,0.0,0.0,97,0.00,,,0.00,Wunderground v.1.15,2013-01-23 03:35:00,
2013-01-22 19:46:00,33.1,32.3,30.01,SSW,213,0.0,1.0,97,0.00,,,0.00,Wunderground v.1.15,2013-01-23 03:46:00,
2013-01-22 19:55:00,32.9,32.1,30.00,SSW,213,0.0,1.0,97,0.00,,,0.00,Wunderground v.1.15,2013-01-23 03:55:00,
2013-01-22 20:10:00,32.9,32.1,30.00,SSW,213,0.0,0.0,97,0.00,,,0.00,Wunderground v.1.15,2013-01-23 04:10:00,
2013-01-22 20:16:00,32.9,32.1,30.00,SSW,213,0.0,0.0,97,0.00,,,0.00,Wunderground v.1.15,2013-01-23 04:16:00,
2013-01-22 20:25:00,32.9,32.4,30.00,SSW,213,0.0,0.0,98,0.00,,,0.00,Wunderground v.1.15,2013-01-23 04:25:00,
2013-01-22 20:35:00,33.1,32.6,30.01,SSW,213,0.0,0.0,98,0.00,,,0.00,Wunderground v.1.15,2013-01-23 04:35:00,
2013-01-22 20:41:00,33.1,32.6,30.01,SSW,213,0.0,0.0,98,0.00,,,0.00,Wunderground v.1.15,2013-01-23 04:41:00,
2013-01-22 20:50:00,33.1,32.6,30.00,SSW,213,0.0,0.0,98,0.00,,,0.00,Wunderground v.1.15,2013-01-23 04:50:00,
2013-01-22 21:00:00,32.9,32.4,30.00,SSW,213,0.0,0.0,98,0.00,,,0.00,Wunderground v.1.15,2013-01-23 05:00:00,
2013-01-22 21:10:00,32.9,32.4,30.00,SSW,213,0.0,0.0,98,0.00,,,0.00,Wunderground v.1.15,2013-01-23 05:10:00,
2013-01-22 21:16:00,32.9,32.4,30.00,SSW,213,0.0,0.0,98,0.00,,,0.00,Wunderground v.1.15,2013-01-23 05:16:00,
2013-01-22 21:20:00,32.9,32.4,30.00,SSW,213,0.0,0.0,98,0.00,,,0.00,Wunderground v.1.15,2013-01-23 05:20:00,
2013-01-22 21:30:00,32.8,32.3,30.00,SSW,213,0.0,0.0,98,0.00,,,0.00,Wunderground v.1.15,2013-01-23 05:30:00,
2013-01-22 21:36:00,32.9,32.4,29.99,SSW,213,0.0,0.0,98,0.00,,,0.00,Wunderground v.1.15,2013-01-23 05:36:00,
2013-01-22 21:45:00,33.1,32.6,29.99,SSW,213,0.0,0.0,98,0.00,,,0.00,Wunderground v.1.15,2013-01-23 05:45:00,
2013-01-22 21:55:00,33.2,32.7,29.98,SSW,213,0.0,0.0,98,0.00,,,0.00,Wunderground v.1.15,2013-01-23 05:55:00,
2013-01-22 22:00:00,33.2,32.7,29.98,SSW,213,0.0,0.0,98,0.00,,,0.00,Wunderground v.1.15,2013-01-23 06:00:00,
2013-01-22 22:10:00,33.2,32.7,29.98,SSW,213,0.0,0.0,98,0.00,,,0.00,Wunderground v.1.15,2013-01-23 06:10:00,
2013-01-22 22:20:00,33.4,32.9,29.98,SSW,213,0.0,0.0,98,0.00,,,0.00,Wunderground v.1.15,2013-01-23 06:20:00,
2013-01-22 22:25:00,33.5,33.0,29.98,SSW,213,0.0,0.0,98,0.00,,,0.00,Wunderground v.1.15,2013-01-23 06:25:00,
2013-01-22 22:35:00,33.8,33.3,29.98,SSW,213,0.0,0.0,98,0.00,,,0.00,Wunderground v.1.15,2013-01-23 06:35:00,
2013-01-22 22:41:00,33.8,33.3,29.98,SSW,213,0.0,0.0,98,0.00,,,0.00,Wunderground v.1.15,2013-01-23 06:41:00,
2013-01-22 22:50:00,34.0,33.5,29.98,SSW,213,0.0,0.0,98,0.00,,,0.00,Wunderground v.1.15,2013-01-23 06:50:00,
2013-01-22 23:01:00,34.1,33.6,29.98,SSW,213,0.0,0.0,98,0.00,,,0.00,Wunderground v.1.15,2013-01-23 07:01:00,
2013-01-22 23:11:00,34.1,33.6,29.98,SSW,213,0.0,0.0,98,0.00,,,0.00,Wunderground v.1.15,2013-01-23 07:11:00,
2013-01-22 23:20:00,34.1,33.6,29.99,SSW,213,0.0,0.0,98,0.00,,,0.00,Wunderground v.1.15,2013-01-23 07:20:00,
2013-01-22 23:31:00,34.1,33.6,29.99,SSW,213,0.0,0.0,98,0.00,,,0.00,Wunderground v.1.15,2013-01-23 07:31:00,
2013-01-22 23:40:00,34.1,33.6,29.99,SSW,213,0.0,0.0,98,0.00,,,0.00,Wunderground v.1.15,2013-01-23 07:40:00,
2013-01-22 23:51:00,34.0,33.5,29.99,SSW,213,0.0,2.0,98,0.00,,,0.00,Wunderground v.1.15,2013-01-23 07:51:00,